createdAt,value
2019-01-13T00:02:03.741Z,1.90
2019-01-13T00:04:33.314Z,1.50
2019-01-13T00:07:03.573Z,1.77
2019-01-13T00:09:33.137Z,1.80
2019-01-13T00:12:02.823Z,1.73
2019-01-13T00:14:32.396Z,1.53
2019-01-13T00:17:01.984Z,1.63
2019-01-13T00:19:31.625Z,1.63
2019-01-13T00:22:01.241Z,1.70
2019-01-13T00:24:30.817Z,1.63
2019-01-13T00:27:00.371Z,2.00
2019-01-13T00:29:29.959Z,1.50
2019-01-13T00:31:59.552Z,1.57
2019-01-13T00:34:29.172Z,1.67
2019-01-13T00:36:58.760Z,1.90
2019-01-13T00:39:28.331Z,1.47
2019-01-13T00:41:57.939Z,1.57
2019-01-13T00:44:27.553Z,1.77
2019-01-13T00:46:57.106Z,1.40
2019-01-13T00:49:26.672Z,2.23
2019-01-13T00:51:56.240Z,1.77
2019-01-13T00:54:25.830Z,1.80
2019-01-13T00:56:55.415Z,1.67
2019-01-13T00:59:25.000Z,1.40
2019-01-13T01:01:56.582Z,1.87
2019-01-13T01:04:26.150Z,1.30
2019-01-13T01:06:55.764Z,2.27
2019-01-13T01:09:25.361Z,1.40
2019-01-13T01:11:55.082Z,1.57
2019-01-13T01:14:24.666Z,1.63
2019-01-13T01:16:54.254Z,1.57
2019-01-13T01:19:23.865Z,1.50
2019-01-13T01:21:53.475Z,1.57
2019-01-13T01:24:23.142Z,1.60
2019-01-13T01:26:52.721Z,2.20
2019-01-13T01:29:22.309Z,1.60
2019-01-13T01:31:51.885Z,1.37
2019-01-13T01:34:21.474Z,1.40
2019-01-13T01:36:51.078Z,1.40
2019-01-13T01:39:20.609Z,1.33
2019-01-13T01:41:51.079Z,1.40
2019-01-13T01:44:21.199Z,1.47
2019-01-13T01:46:50.792Z,1.73
2019-01-13T01:49:20.397Z,1.57
2019-01-13T01:51:49.992Z,1.53
2019-01-13T01:54:19.569Z,1.40
2019-01-13T01:56:49.138Z,1.73
2019-01-13T01:59:18.968Z,1.90
2019-01-13T02:01:48.537Z,1.40
2019-01-13T02:04:18.107Z,1.60
2019-01-13T02:06:47.686Z,1.90
2019-01-13T02:09:17.249Z,1.70
2019-01-13T02:11:46.885Z,1.67
2019-01-13T02:14:16.441Z,1.50
2019-01-13T02:16:46.031Z,1.90
2019-01-13T02:19:15.608Z,1.73
2019-01-13T02:21:45.206Z,1.40
2019-01-13T02:24:14.790Z,1.60
2019-01-13T02:26:44.323Z,1.70
2019-01-13T02:29:13.961Z,1.60
2019-01-13T02:31:43.535Z,1.70
2019-01-13T02:34:13.137Z,1.70
2019-01-13T02:36:42.721Z,1.40
2019-01-13T02:39:12.303Z,1.77
2019-01-13T02:41:42.451Z,1.33
2019-01-13T02:44:12.043Z,2.00
2019-01-13T02:46:41.618Z,1.63
2019-01-13T02:49:11.196Z,1.67
2019-01-13T02:51:40.756Z,1.60
2019-01-13T02:54:10.342Z,1.60
2019-01-13T02:56:39.919Z,1.77
2019-01-13T02:59:09.501Z,1.33
2019-01-13T03:01:39.141Z,1.70
2019-01-13T03:04:08.768Z,1.60
2019-01-13T03:06:38.306Z,2.03
2019-01-13T03:09:09.141Z,1.70
2019-01-13T03:11:38.733Z,1.70
2019-01-13T03:14:08.298Z,1.57
2019-01-13T03:16:37.897Z,1.63
2019-01-13T03:19:07.487Z,1.92
2019-01-13T03:21:37.083Z,1.53
2019-01-13T03:24:06.695Z,2.10
2019-01-13T03:26:36.337Z,1.43
2019-01-13T03:29:05.930Z,1.47
2019-01-13T03:31:35.497Z,1.20
2019-01-13T03:34:05.141Z,1.83
2019-01-13T03:36:34.663Z,1.63
2019-01-13T03:39:07.195Z,1.43
2019-01-13T03:41:36.791Z,1.40
2019-01-13T03:44:06.350Z,1.40
2019-01-13T03:46:35.961Z,1.60
2019-01-13T03:49:05.561Z,1.43
2019-01-13T03:51:35.153Z,1.60
2019-01-13T03:54:04.731Z,1.37
2019-01-13T03:56:35.525Z,1.60
2019-01-13T03:59:05.113Z,1.50
2019-01-13T04:01:34.701Z,1.50
2019-01-13T04:04:04.363Z,1.50
2019-01-13T04:06:33.949Z,1.83
2019-01-13T04:09:04.658Z,1.47
2019-01-13T04:11:34.248Z,1.43
2019-01-13T04:14:03.825Z,1.60
2019-01-13T04:16:33.446Z,1.73
2019-01-13T04:19:03.028Z,1.63
2019-01-13T04:21:32.608Z,1.70
2019-01-13T04:24:02.282Z,1.90
2019-01-13T04:26:31.840Z,2.00
2019-01-13T04:29:01.426Z,1.70
2019-01-13T04:31:31.012Z,2.07
2019-01-13T04:34:00.576Z,1.77
2019-01-13T04:36:30.160Z,1.90
2019-01-13T04:38:59.716Z,1.83
2019-01-13T04:41:29.314Z,2.00
2019-01-13T04:43:58.953Z,1.60
2019-01-13T04:46:28.522Z,1.97
2019-01-13T04:48:58.117Z,1.87
2019-01-13T04:51:27.694Z,2.00
2019-01-13T04:53:57.273Z,1.77
2019-01-13T04:56:26.911Z,1.67
2019-01-13T04:58:56.509Z,2.43
2019-01-13T05:01:26.089Z,1.93
2019-01-13T05:03:55.666Z,1.80
2019-01-13T05:06:25.231Z,2.10
2019-01-13T05:08:54.791Z,1.67
2019-01-13T05:11:24.345Z,1.53
2019-01-13T05:13:53.926Z,2.10
2019-01-13T05:16:23.453Z,1.90
2019-01-13T05:18:53.065Z,1.90
2019-01-13T05:21:22.653Z,1.83
2019-01-13T05:23:52.244Z,1.77
2019-01-13T05:26:21.838Z,1.57
2019-01-13T05:28:51.422Z,1.50
2019-01-13T05:31:21.000Z,2.43
2019-01-13T05:33:52.182Z,2.00
2019-01-13T05:36:21.742Z,1.90
2019-01-13T05:38:51.329Z,1.83
2019-01-13T05:41:20.894Z,1.50
2019-01-13T05:43:50.467Z,1.83
2019-01-13T05:46:20.066Z,2.00
2019-01-13T05:48:49.638Z,1.80
2019-01-13T05:51:19.217Z,2.00
2019-01-13T05:53:48.785Z,1.87
2019-01-13T05:56:18.376Z,1.77
2019-01-13T05:58:47.968Z,1.20
2019-01-13T06:01:17.552Z,2.40
2019-01-13T06:03:47.127Z,1.77
2019-01-13T06:06:16.688Z,2.47
2019-01-13T06:08:46.866Z,2.50
2019-01-13T06:11:16.451Z,2.70
2019-01-13T06:13:46.021Z,1.90
2019-01-13T06:16:15.589Z,2.17
2019-01-13T06:18:45.161Z,1.97
2019-01-13T06:21:14.754Z,2.50
2019-01-13T06:23:44.332Z,2.07
2019-01-13T06:26:13.918Z,2.63
2019-01-13T06:28:45.149Z,2.60
2019-01-13T06:31:14.745Z,2.67
2019-01-13T06:33:44.305Z,1.77
2019-01-13T06:36:13.902Z,1.67
2019-01-13T06:38:43.464Z,2.23
2019-01-13T06:41:13.021Z,2.33
2019-01-13T06:43:42.635Z,1.43
2019-01-13T06:46:12.257Z,2.40
2019-01-13T06:48:41.837Z,2.40
2019-01-13T06:51:11.397Z,2.70
2019-01-13T06:53:40.986Z,2.30
2019-01-13T06:56:10.508Z,1.90
2019-01-13T06:58:40.124Z,2.23
2019-01-13T07:01:09.692Z,2.30
2019-01-13T07:03:39.272Z,2.17
2019-01-13T07:06:08.866Z,2.80
2019-01-13T07:08:38.431Z,2.77
2019-01-13T07:11:08.010Z,2.30
2019-01-13T07:13:37.591Z,2.20
2019-01-13T07:16:08.459Z,1.77
2019-01-13T07:18:38.036Z,1.53
2019-01-13T07:21:07.589Z,2.33
2019-01-13T07:23:37.173Z,2.00
2019-01-13T07:26:06.766Z,2.20
2019-01-13T07:28:36.326Z,2.13
2019-01-13T07:31:06.637Z,2.40
2019-01-13T07:33:36.219Z,2.00
2019-01-13T07:36:07.101Z,1.93
2019-01-13T07:38:36.671Z,2.10
2019-01-13T07:41:06.270Z,2.27
2019-01-13T07:43:35.853Z,2.63
2019-01-13T07:46:05.419Z,2.20
2019-01-13T07:48:35.138Z,2.60
2019-01-13T07:51:04.746Z,2.97
2019-01-13T07:53:34.325Z,2.27
2019-01-13T07:56:03.926Z,2.23
2019-01-13T07:58:33.516Z,1.83
2019-01-13T08:01:05.837Z,2.00
2019-01-13T08:03:35.432Z,2.60
2019-01-13T08:06:05.036Z,2.00
2019-01-13T08:08:35.829Z,1.93
2019-01-13T08:11:05.373Z,1.97
2019-01-13T08:13:34.982Z,2.60
2019-01-13T08:16:04.561Z,2.23
2019-01-13T08:18:34.144Z,2.40
2019-01-13T08:21:03.712Z,2.40
2019-01-13T08:23:33.279Z,2.13
2019-01-13T08:26:02.844Z,2.33
2019-01-13T08:28:32.424Z,2.03
2019-01-13T08:31:01.954Z,1.97
2019-01-13T08:33:31.588Z,2.90
2019-01-13T08:36:01.160Z,2.07
2019-01-13T08:38:30.724Z,2.60
2019-01-13T08:41:00.305Z,2.30
2019-01-13T08:43:30.879Z,1.97
2019-01-13T08:46:00.480Z,2.27
2019-01-13T08:48:30.058Z,2.17
2019-01-13T08:50:59.636Z,2.10
2019-01-13T08:53:29.242Z,2.30
2019-01-13T08:55:58.826Z,2.50
2019-01-13T08:58:28.423Z,1.93
2019-01-13T09:00:58.018Z,1.70
2019-01-13T09:03:27.569Z,2.20
2019-01-13T09:05:57.193Z,2.47
2019-01-13T09:08:26.763Z,2.10
2019-01-13T09:10:56.338Z,2.00
2019-01-13T09:13:25.897Z,2.00
2019-01-13T09:15:55.477Z,2.33
2019-01-13T09:18:25.021Z,1.80
2019-01-13T09:20:54.651Z,2.90
2019-01-13T09:23:24.237Z,1.80
2019-01-13T09:25:53.810Z,2.03
2019-01-13T09:28:23.384Z,2.10
2019-01-13T09:30:54.153Z,2.00
2019-01-13T09:33:36.216Z,2.17
2019-01-13T09:36:05.799Z,1.60
2019-01-13T09:38:35.376Z,1.73
2019-01-13T09:41:04.978Z,1.80
2019-01-13T09:43:34.580Z,2.03
2019-01-13T09:46:04.902Z,1.97
2019-01-13T09:48:34.496Z,1.77
2019-01-13T09:51:04.090Z,2.10
2019-01-13T09:53:33.684Z,2.00
2019-01-13T09:56:06.300Z,2.30
2019-01-13T09:58:35.849Z,1.80
2019-01-13T10:01:05.484Z,2.30
2019-01-13T10:03:35.065Z,1.70
2019-01-13T10:06:04.730Z,2.00
2019-01-13T10:08:35.949Z,1.90
2019-01-13T10:11:05.550Z,2.20
2019-01-13T10:13:35.154Z,2.03
2019-01-13T10:16:04.861Z,2.00
2019-01-13T10:18:34.475Z,1.80
2019-01-13T10:21:04.080Z,2.33
2019-01-13T10:23:33.654Z,2.37
2019-01-13T10:26:03.251Z,2.27
2019-01-13T10:28:37.462Z,1.83
2019-01-13T10:31:07.073Z,2.10
2019-01-13T10:33:36.681Z,2.23
2019-01-13T10:36:06.282Z,1.93
2019-01-13T10:38:35.836Z,2.20
2019-01-13T10:41:05.418Z,2.23
2019-01-13T10:43:35.002Z,2.53
2019-01-13T10:46:04.532Z,2.27
2019-01-13T10:48:34.160Z,2.00
2019-01-13T10:51:03.866Z,2.37
2019-01-13T10:53:33.438Z,1.70
2019-01-13T10:56:03.016Z,2.30
2019-01-13T10:58:33.577Z,2.20
2019-01-13T11:01:03.179Z,2.03
2019-01-13T11:03:32.761Z,2.07
2019-01-13T11:06:02.413Z,2.10
2019-01-13T11:08:31.985Z,2.00
2019-01-13T11:11:01.585Z,3.17
2019-01-13T11:13:31.753Z,2.43
2019-01-13T11:16:01.353Z,1.87
2019-01-13T11:18:30.936Z,2.57
2019-01-13T11:21:00.541Z,2.10
2019-01-13T11:23:30.134Z,2.00
2019-01-13T11:25:59.731Z,1.90
2019-01-13T11:28:29.301Z,2.50
2019-01-13T11:30:58.867Z,2.27
2019-01-13T11:33:28.434Z,2.27
2019-01-13T11:35:58.024Z,2.10
2019-01-13T11:38:27.589Z,2.22
2019-01-13T11:40:57.176Z,2.27
2019-01-13T11:43:26.791Z,2.10
2019-01-13T11:45:56.380Z,4.30
2019-01-13T11:48:26.190Z,3.17
2019-01-13T11:50:55.733Z,3.37
2019-01-13T11:53:25.380Z,2.90
2019-01-13T11:55:54.963Z,2.87
2019-01-13T11:58:24.568Z,2.40
2019-01-13T12:00:54.203Z,4.10
2019-01-13T12:03:23.858Z,3.43
2019-01-13T12:05:53.477Z,3.20
2019-01-13T12:08:23.142Z,3.83
2019-01-13T12:10:52.772Z,3.50
2019-01-13T12:13:23.006Z,3.07
2019-01-13T12:15:52.632Z,4.07
2019-01-13T12:18:22.188Z,3.60
2019-01-13T12:20:51.806Z,3.57
2019-01-13T12:23:22.272Z,5.00
2019-01-13T12:25:52.844Z,3.30
2019-01-13T12:28:23.138Z,4.03
2019-01-13T12:30:54.138Z,4.20
2019-01-13T12:33:24.579Z,4.50
2019-01-13T12:35:55.048Z,4.60
2019-01-13T12:38:24.652Z,3.53
2019-01-13T12:40:55.446Z,3.63
2019-01-13T12:43:25.096Z,3.00
2019-01-13T12:45:54.673Z,3.43
2019-01-13T12:48:24.268Z,3.10
2019-01-13T12:50:53.870Z,4.33
2019-01-13T12:53:23.751Z,2.70
2019-01-13T12:55:53.337Z,3.20
2019-01-13T12:58:22.917Z,3.07
2019-01-13T13:00:52.553Z,3.37
2019-01-13T13:03:22.157Z,5.27
2019-01-13T13:05:52.468Z,3.53
2019-01-13T13:08:22.059Z,3.13
2019-01-13T13:10:54.528Z,3.80
2019-01-13T13:13:24.729Z,3.87
2019-01-13T13:15:54.341Z,2.73
2019-01-13T13:18:24.938Z,3.30
2019-01-13T13:20:57.619Z,2.67
2019-01-13T13:23:28.806Z,2.93
2019-01-13T13:25:58.418Z,4.40
2019-01-13T13:28:28.020Z,2.83
2019-01-13T13:30:57.627Z,3.17
2019-01-13T13:33:27.236Z,2.60
2019-01-13T13:35:56.918Z,2.70
2019-01-13T13:38:29.605Z,3.07
2019-01-13T13:40:59.213Z,2.70
2019-01-13T13:43:33.948Z,3.87
2019-01-13T13:46:03.604Z,3.53
2019-01-13T13:48:33.208Z,3.33
2019-01-13T13:51:02.818Z,3.03
2019-01-13T13:53:32.408Z,3.37
2019-01-13T13:56:02.021Z,3.07
2019-01-13T13:58:31.626Z,2.90
2019-01-13T14:01:01.298Z,2.83
2019-01-13T14:03:30.918Z,2.50
2019-01-13T14:06:00.543Z,2.80
2019-01-13T14:08:30.181Z,3.70
2019-01-13T14:10:59.757Z,3.00
2019-01-13T14:13:29.351Z,2.53
2019-01-13T14:15:58.927Z,2.33
2019-01-13T14:18:28.502Z,2.63
2019-01-13T14:20:58.115Z,3.03
2019-01-13T14:23:27.725Z,3.00
2019-01-13T14:25:57.392Z,2.57
2019-01-13T14:28:27.096Z,2.93
2019-01-13T14:30:56.889Z,2.63
2019-01-13T14:33:26.635Z,3.50
2019-01-13T14:35:56.333Z,4.10
2019-01-13T14:38:26.052Z,5.20
2019-01-13T14:40:55.772Z,4.90
2019-01-13T14:43:26.353Z,4.93
2019-01-13T14:45:55.948Z,4.93
2019-01-13T14:48:25.604Z,5.63
2019-01-13T14:50:55.194Z,5.97
2019-01-13T14:53:24.820Z,5.60
2019-01-13T14:55:54.440Z,6.03
2019-01-13T14:58:24.062Z,6.07
2019-01-13T15:00:53.843Z,5.17
2019-01-13T15:03:23.438Z,5.33
2019-01-13T15:05:53.043Z,5.70
2019-01-13T15:08:22.738Z,5.43
2019-01-13T15:10:52.390Z,8.10
2019-01-13T15:13:23.213Z,5.27
2019-01-13T15:15:52.841Z,5.57
2019-01-13T15:18:22.534Z,4.53
2019-01-13T15:20:52.150Z,5.50
2019-01-13T15:23:21.750Z,5.20
2019-01-13T15:25:51.474Z,5.63
2019-01-13T15:28:22.331Z,4.23
2019-01-13T15:30:51.942Z,4.40
2019-01-13T15:33:21.552Z,4.30
2019-01-13T15:35:51.221Z,4.60
2019-01-13T15:38:20.887Z,3.73
2019-01-13T15:40:50.587Z,4.67
2019-01-13T15:43:20.222Z,6.20
2019-01-13T15:45:49.901Z,5.40
2019-01-13T15:48:19.545Z,5.00
2019-01-13T15:50:49.139Z,6.70
2019-01-13T15:53:18.775Z,9.03
2019-01-13T15:55:48.517Z,9.33
2019-01-13T15:58:18.143Z,7.77
2019-01-13T16:00:47.826Z,7.23
2019-01-13T16:03:17.507Z,9.23
2019-01-13T16:05:47.196Z,8.45
2019-01-13T16:08:16.792Z,9.28
2019-01-13T16:10:46.422Z,7.23
2019-01-13T16:13:16.975Z,8.47
2019-01-13T16:15:46.657Z,8.88
2019-01-13T16:18:16.328Z,7.70
2019-01-13T16:20:45.936Z,7.10
2019-01-13T16:23:15.648Z,8.33
2019-01-13T16:25:45.296Z,7.93
2019-01-13T16:28:14.966Z,7.20
2019-01-13T16:30:44.650Z,7.87
2019-01-13T16:33:14.270Z,7.07
2019-01-13T16:35:43.950Z,5.87
2019-01-13T16:38:13.552Z,6.60
2019-01-13T16:40:43.310Z,6.60
2019-01-13T16:43:13.170Z,6.27
2019-01-13T16:45:42.849Z,6.20
2019-01-13T16:48:12.487Z,6.83
2019-01-13T16:50:42.070Z,5.63
2019-01-13T16:53:12.550Z,5.40
2019-01-13T16:55:42.165Z,5.57
2019-01-13T16:58:11.834Z,6.87
2019-01-13T17:00:41.469Z,6.37
2019-01-13T17:03:11.129Z,4.77
2019-01-13T17:05:41.470Z,5.07
2019-01-13T17:08:11.106Z,5.43
2019-01-13T17:10:40.707Z,5.70
2019-01-13T17:13:10.401Z,4.63
2019-01-13T17:15:40.028Z,6.63
2019-01-13T17:18:11.253Z,6.13
2019-01-13T17:20:40.881Z,6.37
2019-01-13T17:23:10.583Z,6.67
2019-01-13T17:25:40.201Z,7.57
2019-01-13T17:28:10.150Z,6.87
2019-01-13T17:30:39.878Z,6.53
2019-01-13T17:33:09.513Z,7.57
2019-01-13T17:35:40.295Z,7.83
2019-01-13T17:38:09.902Z,9.30
2019-01-13T17:40:39.493Z,9.80
2019-01-13T17:43:09.069Z,7.50
2019-01-13T17:45:38.717Z,8.63
2019-01-13T17:48:09.492Z,7.47
2019-01-13T17:50:39.109Z,8.30
2019-01-13T17:53:11.041Z,7.50
2019-01-13T17:55:40.725Z,8.60
2019-01-13T17:58:12.270Z,7.87
2019-01-13T18:00:51.919Z,7.67
2019-01-13T18:03:26.842Z,7.37
2019-01-13T18:05:56.468Z,7.97
2019-01-13T18:08:27.050Z,7.93
2019-01-13T18:10:56.646Z,7.30
2019-01-13T18:13:26.282Z,8.37
2019-01-13T18:15:55.889Z,8.10
2019-01-13T18:18:25.483Z,7.70
2019-01-13T18:20:55.141Z,8.77
2019-01-13T18:23:24.777Z,9.77
2019-01-13T18:25:54.397Z,9.57
2019-01-13T18:28:24.103Z,10.93
2019-01-13T18:30:53.705Z,8.13
2019-01-13T18:33:23.316Z,10.40
2019-01-13T18:35:52.887Z,10.57
2019-01-13T18:38:22.584Z,10.27
2019-01-13T18:40:52.218Z,13.77
2019-01-13T18:43:21.824Z,11.43
2019-01-13T18:45:51.437Z,16.60
2019-01-13T18:48:21.068Z,12.87
2019-01-13T18:50:51.194Z,12.47
2019-01-13T18:53:20.868Z,17.70
2019-01-13T18:55:50.472Z,12.23
2019-01-13T18:58:20.102Z,13.00
2019-01-13T19:00:49.792Z,12.67
2019-01-13T19:03:19.428Z,13.77
2019-01-13T19:05:49.069Z,14.47
2019-01-13T19:08:20.336Z,12.37
2019-01-13T19:11:09.365Z,13.70
2019-01-13T19:14:07.203Z,13.37
2019-01-13T19:16:43.462Z,13.80
2019-01-13T19:19:13.064Z,12.43
2019-01-13T19:21:42.788Z,13.13
2019-01-13T19:24:12.368Z,15.32
2019-01-13T19:26:41.944Z,14.40
2019-01-13T19:29:12.360Z,15.07
2019-01-13T19:31:41.956Z,11.83
2019-01-13T19:34:12.605Z,11.63
2019-01-13T19:36:42.190Z,11.57
2019-01-13T19:39:11.771Z,11.43
2019-01-13T19:41:41.427Z,13.10
2019-01-13T19:44:11.022Z,12.50
2019-01-13T19:46:40.633Z,13.03
2019-01-13T19:49:10.233Z,9.70
2019-01-13T19:51:39.793Z,13.20
2019-01-13T19:54:09.408Z,9.33
2019-01-13T19:56:39.009Z,9.60
2019-01-13T19:59:08.671Z,10.47
2019-01-13T20:01:38.233Z,10.80
2019-01-13T20:04:07.885Z,10.57
2019-01-13T20:06:37.477Z,9.67
2019-01-13T20:09:11.890Z,13.17
2019-01-13T20:11:41.469Z,8.93
2019-01-13T20:14:11.053Z,12.23
2019-01-13T20:16:40.605Z,9.50
2019-01-13T20:19:10.195Z,10.87
2019-01-13T20:21:39.832Z,9.67
2019-01-13T20:24:09.422Z,11.80
2019-01-13T20:26:38.958Z,10.17
2019-01-13T20:29:08.599Z,10.37
2019-01-13T20:31:38.208Z,10.00
2019-01-13T20:34:07.789Z,8.77
2019-01-13T20:36:39.000Z,11.07
2019-01-13T20:39:11.090Z,10.23
2019-01-13T20:41:40.672Z,10.47
2019-01-13T20:44:10.265Z,9.60
2019-01-13T20:46:39.843Z,9.60
2019-01-13T20:49:09.417Z,10.70
2019-01-13T20:51:39.079Z,11.30
2019-01-13T20:54:10.284Z,8.73
2019-01-13T20:56:39.884Z,9.60
2019-01-13T20:59:09.501Z,8.60
2019-01-13T21:01:39.156Z,9.60
2019-01-13T21:04:09.466Z,9.87
2019-01-13T21:06:39.044Z,7.93
2019-01-13T21:09:10.548Z,8.70
2019-01-13T21:11:40.300Z,9.17
2019-01-13T21:14:09.896Z,8.67
2019-01-13T21:16:39.468Z,8.03
2019-01-13T21:19:10.130Z,8.37
2019-01-13T21:21:40.016Z,8.07
2019-01-13T21:24:09.599Z,6.70
2019-01-13T21:26:39.160Z,9.03
2019-01-13T21:29:08.820Z,9.77
2019-01-13T21:31:38.427Z,7.73
2019-01-13T21:34:08.186Z,7.57
2019-01-13T21:36:37.788Z,7.17
2019-01-13T21:39:09.586Z,8.63
2019-01-13T21:41:39.178Z,8.23
2019-01-13T21:44:08.774Z,8.40
2019-01-13T21:46:38.342Z,7.53
2019-01-13T21:49:07.932Z,8.60
2019-01-13T21:51:37.547Z,8.50
2019-01-13T21:54:10.805Z,7.13
2019-01-13T21:56:38.498Z,7.37
2019-01-13T21:59:08.076Z,8.57
2019-01-13T22:01:37.698Z,9.20
2019-01-13T22:04:07.297Z,6.47
2019-01-13T22:06:36.959Z,6.97
2019-01-13T22:09:11.778Z,6.80
2019-01-13T22:11:41.374Z,7.47
2019-01-13T22:14:10.992Z,6.37
2019-01-13T22:16:40.530Z,6.43
2019-01-13T22:19:10.176Z,6.43
2019-01-13T22:21:39.738Z,6.33
2019-01-13T22:24:09.307Z,8.43
2019-01-13T22:26:38.934Z,7.07
2019-01-13T22:29:08.488Z,6.50
2019-01-13T22:31:38.128Z,6.73
2019-01-13T22:34:07.742Z,6.50
2019-01-13T22:36:38.405Z,6.97
2019-01-13T22:39:08.853Z,6.87
2019-01-13T22:41:38.437Z,7.00
2019-01-13T22:44:08.021Z,7.60
2019-01-13T22:46:37.621Z,6.93
2019-01-13T22:49:07.217Z,7.47
2019-01-13T22:51:38.461Z,7.47
2019-01-13T22:54:08.047Z,7.20
2019-01-13T22:56:37.689Z,6.03
2019-01-13T22:59:08.907Z,6.90
2019-01-13T23:01:42.002Z,5.67
2019-01-13T23:04:13.869Z,6.70
2019-01-13T23:06:43.533Z,7.10
2019-01-13T23:09:14.561Z,5.87
2019-01-13T23:11:44.150Z,6.57
2019-01-13T23:14:15.368Z,6.10
2019-01-13T23:16:44.938Z,6.50
2019-01-13T23:19:14.542Z,5.77
2019-01-13T23:21:44.152Z,6.03
2019-01-13T23:24:13.777Z,6.50
2019-01-13T23:26:43.312Z,6.73
2019-01-13T23:29:12.949Z,5.93
2019-01-13T23:31:42.614Z,8.03
2019-01-13T23:34:12.218Z,5.53
2019-01-13T23:36:41.799Z,5.40
2019-01-13T23:39:11.363Z,5.50
2019-01-13T23:41:41.166Z,5.20
2019-01-13T23:44:10.876Z,5.37
2019-01-13T23:46:40.529Z,5.33
2019-01-13T23:49:10.385Z,5.77
2019-01-13T23:51:40.153Z,5.70
2019-01-13T23:54:09.777Z,6.03
2019-01-13T23:56:39.554Z,5.73
2019-01-13T23:59:09.127Z,5.07
